Terminal Aerodrome Forecast
Issued by NWS

Home | Current Version | Previous Version | Text Only | Print | Product List | Glossary On
Versions: 1 2 3 4 5 6 7 8 9 10 11 12 13 14 15
000
FTUS45 KGJT 260544
TAFCNY
TAF
KCNY 260544Z 2606/2706 24003KT P6SM SCT250
     FM261200 03007KT P6SM SCT070 BKN250
     FM261400 08006KT P6SM SCT070 BKN250
     FM261700 25006KT P6SM SCT250
     FM261900 28007KT P6SM VCSH SCT070 BKN150
     FM270300 31009KT P6SM SCT100 BKN250=

USA.gov is the U.S. government's official web portal to all federal, state and local government web resources and services.